Time;durP1;ratioP1;P1;durP2;ratioP2;P2;SDS_P1;SDS_P2;PMS_P1;PMS_P2;Temp;Humidity;BMP_temperature;BMP_pressure;BME280_temperature;BME280_humidity;BME280_pressure;Samples;Min_cycle;Max_cycle;Signal;HPM_P1;HPM_P2
2022/01/23 00:00:44;;;;;;;12.23;9.70;;;5.00;99.90;;;;;;4918163;29;20435;-91
2022/01/23 00:03:17;;;;;;;17.93;12.77;;;5.00;99.90;;;;;;4917895;29;20643;-90
2022/01/23 00:05:45;;;;;;;18.20;11.90;;;5.00;99.90;;;;;;4917714;29;20191;-91
2022/01/23 00:08:13;;;;;;;11.67;7.73;;;5.00;99.90;;;;;;4917849;29;20555;-91
2022/01/23 00:10:40;;;;;;;14.70;7.67;;;5.00;99.90;;;;;;4917680;29;20194;-90
2022/01/23 00:18:47;;;;;;;9.03;6.23;;;5.00;99.90;;;;;;4917111;29;20230;-91
2022/01/23 00:21:29;;;;;;;7.00;6.23;;;4.90;99.90;;;;;;4915879;29;20511;-90
2022/01/23 00:32:40;;;;;;;7.63;6.40;;;4.90;99.90;;;;;;4898017;29;20182;-91
2022/01/23 00:35:07;;;;;;;8.80;6.60;;;4.80;99.90;;;;;;4919217;29;20190;-90
2022/01/23 00:37:33;;;;;;;12.23;7.13;;;4.90;99.90;;;;;;4920314;29;20198;-90
2022/01/23 00:39:59;;;;;;;8.40;6.63;;;4.90;99.90;;;;;;4919762;29;20610;-90
2022/01/23 00:42:27;;;;;;;9.17;6.90;;;4.90;99.90;;;;;;4919714;29;20325;-90
2022/01/23 00:45:03;;;;;;;10.47;6.77;;;4.80;99.90;;;;;;4919791;29;20202;-90
2022/01/23 00:47:31;;;;;;;8.83;6.70;;;4.80;99.90;;;;;;4919328;29;20280;-90
2022/01/23 00:49:57;;;;;;;9.37;6.90;;;4.80;99.90;;;;;;4920633;29;20191;-91
2022/01/23 00:52:23;;;;;;;10.93;8.07;;;4.80;99.90;;;;;;4918831;29;20194;-90
2022/01/23 00:54:50;;;;;;;9.87;7.03;;;4.90;99.90;;;;;;4920740;29;20202;-91
2022/01/23 00:57:16;;;;;;;10.23;6.90;;;4.90;99.90;;;;;;4919493;29;20187;-91
2022/01/23 00:59:41;;;;;;;8.67;6.97;;;4.90;99.90;;;;;;4918923;29;20196;-91
2022/01/23 01:02:07;;;;;;;12.33;6.93;;;4.90;99.90;;;;;;4918716;29;20273;-91
2022/01/23 01:04:33;;;;;;;10.03;7.17;;;4.90;99.90;;;;;;4921339;29;20202;-91
2022/01/23 01:06:58;;;;;;;14.00;6.70;;;5.00;99.90;;;;;;4920532;29;20241;-91
2022/01/23 01:09:24;;;;;;;8.43;6.57;;;5.00;99.90;;;;;;4920938;29;20218;-91
2022/01/23 01:12:03;;;;;;;11.77;6.83;;;5.00;99.90;;;;;;4921003;29;20270;-91
2022/01/23 01:14:42;;;;;;;11.57;7.53;;;5.00;99.90;;;;;;4921027;29;20187;-91
2022/01/23 01:30:43;;;;;;;11.73;7.70;;;4.90;99.90;;;;;;4922080;29;20637;-91
2022/01/23 01:37:05;;;;;;;9.27;7.00;;;4.90;99.90;;;;;;4908824;29;20237;-91
2022/01/23 01:39:00;;;;;;;8.77;6.63;;;5.00;99.90;;;;;;4908962;29;20206;-91
2022/01/23 01:41:26;;;;;;;10.00;6.77;;;5.00;99.90;;;;;;4920099;29;20186;-91
2022/01/23 01:43:53;;;;;;;8.97;6.20;;;5.00;99.90;;;;;;4919373;29;20209;-91
2022/01/23 01:46:20;;;;;;;10.87;6.60;;;5.00;99.90;;;;;;4921457;29;20181;-91
2022/01/23 01:48:46;;;;;;;11.57;6.70;;;5.00;99.90;;;;;;4919990;29;20221;-91
2022/01/23 01:51:15;;;;;;;9.93;6.87;;;5.00;99.90;;;;;;4920123;29;20218;-91
2022/01/23 01:53:50;;;;;;;9.13;6.07;;;5.00;99.90;;;;;;4920227;29;20246;-92
2022/01/23 01:56:16;;;;;;;7.53;6.00;;;4.90;99.90;;;;;;4921067;29;20163;-90
2022/01/23 02:09:28;;;;;;;9.47;6.20;;;5.00;99.90;;;;;;4920988;29;20221;-91
2022/01/23 02:15:07;;;;;;;11.33;6.43;;;5.00;99.90;;;;;;4921074;29;20158;-91
2022/01/23 02:55:47;;;;;;;13.57;7.73;;;5.10;99.90;;;;;;4939212;29;20186;-93
2022/01/23 02:58:17;;;;;;;13.63;8.00;;;5.00;99.90;;;;;;4937703;29;20595;-93
2022/01/23 03:01:18;;;;;;;10.13;7.80;;;5.00;99.90;;;;;;4936895;29;20294;-94
2022/01/23 03:03:39;;;;;;;13.00;8.17;;;5.00;99.90;;;;;;4935764;29;20213;-94
2022/01/23 03:09:52;;;;;;;10.70;8.03;;;5.00;99.90;;;;;;4952567;28;20596;-94
2022/01/23 03:14:54;;;;;;;13.00;8.73;;;5.00;99.90;;;;;;4938473;29;20212;-93
2022/01/23 03:30:35;;;;;;;12.80;8.77;;;4.90;99.90;;;;;;4938023;29;20225;-93
2022/01/23 03:33:01;;;;;;;14.40;8.90;;;4.90;99.90;;;;;;4936790;29;20174;-93
2022/01/23 03:35:27;;;;;;;13.90;9.10;;;4.90;99.90;;;;;;4946351;29;20702;-93
2022/01/23 03:37:52;;;;;;;11.67;9.07;;;4.90;99.90;;;;;;4956771;28;20615;-92
2022/01/23 03:40:19;;;;;;;10.07;8.00;;;4.90;99.90;;;;;;4955646;28;20177;-94
2022/01/23 03:42:46;;;;;;;13.77;9.70;;;4.90;99.90;;;;;;4955650;28;20217;-93
2022/01/23 03:50:45;;;;;;;11.20;8.50;;;4.90;99.90;;;;;;4948128;28;20196;-93
2022/01/23 03:53:11;;;;;;;12.23;8.63;;;4.90;99.90;;;;;;4955687;28;20517;-92
2022/01/23 03:55:38;;;;;;;11.33;8.30;;;4.90;99.90;;;;;;4955624;28;20185;-94
2022/01/23 03:58:04;;;;;;;15.07;9.00;;;4.90;99.90;;;;;;4955587;28;20185;-93
2022/01/23 04:00:30;;;;;;;14.67;9.23;;;4.80;99.90;;;;;;4955453;28;20181;-94
2022/01/23 04:02:55;;;;;;;12.67;8.00;;;4.70;99.90;;;;;;4954463;28;20207;-94
2022/01/23 04:05:21;;;;;;;13.60;8.90;;;4.80;99.90;;;;;;4954829;28;20235;-93
2022/01/23 04:07:47;;;;;;;13.17;9.23;;;4.70;99.90;;;;;;4953275;28;20213;-93
2022/01/23 04:10:15;;;;;;;18.30;9.60;;;4.70;99.90;;;;;;4954453;29;20185;-93
2022/01/23 04:12:58;;;;;;;13.07;8.10;;;4.80;99.90;;;;;;4936856;28;20250;-93
2022/01/23 04:15:40;;;;;;;16.47;9.37;;;4.80;99.90;;;;;;4936116;29;20186;-93
2022/01/23 04:32:42;;;;;;;12.93;9.83;;;4.80;99.90;;;;;;4937267;29;20229;-93
2022/01/23 04:45:38;;;;;;;16.30;9.97;;;4.70;99.90;;;;;;4944361;29;20240;-93
2022/01/23 05:02:10;;;;;;;16.93;10.00;;;4.80;99.90;;;;;;4953215;29;20232;-93
2022/01/23 05:04:37;;;;;;;18.37;10.27;;;4.90;99.90;;;;;;4954124;28;20292;-93
2022/01/23 05:07:09;;;;;;;16.93;10.60;;;4.90;99.90;;;;;;4954771;28;20181;-94
2022/01/23 05:09:35;;;;;;;14.93;10.60;;;4.90;99.90;;;;;;4954479;28;20217;-92
2022/01/23 05:12:03;;;;;;;14.93;10.57;;;4.90;99.90;;;;;;4947407;29;20241;-94
2022/01/23 05:14:35;;;;;;;14.83;10.43;;;4.90;99.90;;;;;;4935375;29;20572;-94
2022/01/23 05:17:03;;;;;;;14.37;10.57;;;4.90;99.90;;;;;;4936835;29;20245;-92
2022/01/23 05:19:30;;;;;;;16.53;10.93;;;4.90;99.90;;;;;;4938965;29;20182;-93
2022/01/23 05:24:46;;;;;;;16.83;11.70;;;5.00;99.90;;;;;;4959645;29;20220;-93
2022/01/23 05:27:12;;;;;;;13.87;10.40;;;4.90;99.90;;;;;;4958071;28;20208;-93
2022/01/23 05:29:38;;;;;;;17.40;11.83;;;5.00;99.90;;;;;;4958276;28;20245;-92
2022/01/23 05:32:07;;;;;;;18.37;11.57;;;5.00;99.90;;;;;;4958108;28;20204;-93
2022/01/23 05:34:33;;;;;;;16.00;10.83;;;4.90;99.90;;;;;;4957955;28;20236;-93
2022/01/23 05:36:59;;;;;;;18.27;12.00;;;4.90;99.90;;;;;;4958053;28;20224;-93
2022/01/23 05:39:27;;;;;;;14.77;11.17;;;4.80;99.90;;;;;;4958186;28;20173;-93
2022/01/23 05:42:03;;;;;;;16.30;11.57;;;4.80;99.90;;;;;;4957836;28;20189;-93
2022/01/23 05:44:29;;;;;;;18.97;12.10;;;4.90;99.90;;;;;;4958159;28;20221;-93
2022/01/23 05:46:55;;;;;;;16.87;11.23;;;4.90;99.90;;;;;;4957887;28;20177;-94
2022/01/23 05:49:21;;;;;;;15.33;11.33;;;5.00;99.90;;;;;;4957636;28;20205;-93
2022/01/23 05:51:47;;;;;;;15.67;11.07;;;4.90;99.90;;;;;;4957688;28;20235;-94
2022/01/23 05:54:13;;;;;;;17.23;11.10;;;5.00;99.90;;;;;;4957678;28;20539;-93
2022/01/23 05:56:39;;;;;;;17.37;11.37;;;4.90;99.90;;;;;;4957263;28;20247;-93
2022/01/23 05:59:04;;;;;;;18.27;10.90;;;4.90;99.90;;;;;;4957502;28;20185;-93
2022/01/23 06:01:30;;;;;;;19.70;12.60;;;4.90;99.90;;;;;;4957669;28;20220;-93
2022/01/23 06:03:56;;;;;;;17.97;11.57;;;4.90;99.90;;;;;;4957141;29;20196;-93
2022/01/23 06:06:21;;;;;;;16.47;11.23;;;4.90;99.90;;;;;;4957334;28;20232;-92
2022/01/23 06:08:48;;;;;;;14.33;10.37;;;5.00;99.90;;;;;;4957322;28;20212;-93
2022/01/23 06:11:14;;;;;;;15.37;11.30;;;4.90;99.90;;;;;;4957180;28;20208;-94
2022/01/23 06:13:40;;;;;;;15.00;10.73;;;4.90;99.90;;;;;;4957561;28;20217;-93
2022/01/23 06:16:06;;;;;;;13.87;10.00;;;5.00;99.90;;;;;;4957125;28;20181;-92
2022/01/23 06:18:35;;;;;;;14.33;10.63;;;5.00;99.90;;;;;;4957112;28;20178;-93
2022/01/23 06:21:01;;;;;;;14.17;11.10;;;5.10;99.90;;;;;;4957072;28;20220;-92
2022/01/23 06:23:30;;;;;;;13.57;10.40;;;5.00;99.90;;;;;;4956912;28;20612;-93
2022/01/23 06:25:56;;;;;;;15.40;11.00;;;5.00;99.90;;;;;;4957115;28;20627;-94
2022/01/23 06:29:15;;;;;;;15.40;11.33;;;5.00;99.90;;;;;;4938359;28;20237;-93
2022/01/23 06:31:41;;;;;;;15.80;11.20;;;5.00;99.90;;;;;;4921689;29;20240;-93
2022/01/23 06:34:08;;;;;;;14.17;10.80;;;5.00;99.90;;;;;;4948761;29;20690;-93
2022/01/23 06:36:35;;;;;;;15.17;10.47;;;5.00;99.90;;;;;;4942342;29;20200;-93
2022/01/23 06:39:04;;;;;;;16.50;10.83;;;5.00;99.90;;;;;;4949602;29;20221;-93
2022/01/23 06:41:31;;;;;;;13.37;10.23;;;5.10;99.90;;;;;;4942912;28;20192;-94
2022/01/23 06:43:56;;;;;;;17.30;11.43;;;5.10;99.90;;;;;;4941465;29;20198;-94
2022/01/23 06:46:22;;;;;;;15.10;10.67;;;5.00;99.90;;;;;;4943719;29;20190;-93
2022/01/23 06:48:48;;;;;;;15.27;11.07;;;5.10;99.90;;;;;;4944864;29;20209;-93
2022/01/23 06:51:14;;;;;;;16.47;11.77;;;5.00;99.90;;;;;;4941775;29;20614;-93
2022/01/23 06:53:39;;;;;;;15.03;11.27;;;5.10;99.90;;;;;;4945336;28;20189;-93
2022/01/23 06:56:05;;;;;;;15.93;11.47;;;5.00;99.90;;;;;;4946670;29;20688;-93
2022/01/23 06:58:31;;;;;;;14.17;10.40;;;5.00;99.90;;;;;;4937227;29;20192;-93
2022/01/23 07:00:57;;;;;;;20.77;11.03;;;5.00;99.90;;;;;;4944167;29;20268;-93
2022/01/23 07:03:22;;;;;;;19.30;11.13;;;5.10;99.90;;;;;;4949783;28;20605;-93
2022/01/23 07:05:48;;;;;;;15.30;10.73;;;5.00;99.90;;;;;;4949504;29;20319;-93
2022/01/23 07:08:14;;;;;;;16.27;10.77;;;5.00;99.90;;;;;;4944783;28;20215;-93
2022/01/23 07:10:40;;;;;;;13.50;9.73;;;5.00;99.90;;;;;;4950322;28;20188;-94
2022/01/23 07:13:05;;;;;;;17.10;10.70;;;5.10;99.90;;;;;;4949118;28;20186;-93
2022/01/23 07:15:31;;;;;;;14.07;10.33;;;5.10;99.90;;;;;;4956250;28;20732;-93
2022/01/23 07:17:57;;;;;;;15.73;9.90;;;5.10;99.90;;;;;;4952426;28;20186;-93
2022/01/23 07:20:22;;;;;;;14.20;9.67;;;5.10;99.90;;;;;;4937124;29;20233;-93
2022/01/23 07:22:48;;;;;;;13.07;9.93;;;5.10;99.90;;;;;;4945131;29;20181;-94
2022/01/23 07:25:14;;;;;;;13.50;9.93;;;5.10;99.90;;;;;;4943824;29;20197;-92
2022/01/23 07:27:53;;;;;;;14.20;10.57;;;5.00;99.90;;;;;;4947928;28;20225;-94
2022/01/23 07:32:47;;;;;;;13.10;10.40;;;4.90;99.90;;;;;;4942467;29;20691;-93
2022/01/23 07:35:13;;;;;;;13.77;9.80;;;5.00;99.90;;;;;;4942249;28;20324;-93
2022/01/23 07:37:39;;;;;;;13.93;10.30;;;5.00;99.90;;;;;;4938044;29;20185;-93
2022/01/23 07:40:05;;;;;;;13.40;9.80;;;5.00;99.90;;;;;;4936662;29;20503;-93
2022/01/23 07:42:31;;;;;;;12.77;9.70;;;5.10;99.90;;;;;;4944541;29;20340;-92
2022/01/23 07:44:57;;;;;;;12.70;9.30;;;5.10;99.90;;;;;;4936298;29;20665;-93
2022/01/23 07:47:23;;;;;;;14.50;9.90;;;5.10;99.90;;;;;;4947698;29;20609;-93
2022/01/23 07:49:50;;;;;;;13.67;9.27;;;5.00;99.90;;;;;;4936117;29;20348;-93
2022/01/23 07:52:17;;;;;;;14.03;9.53;;;5.00;99.90;;;;;;4936396;29;20182;-93
2022/01/23 07:54:43;;;;;;;11.23;8.03;;;5.10;99.90;;;;;;4952180;29;20185;-93
2022/01/23 07:57:09;;;;;;;13.93;9.37;;;5.10;99.90;;;;;;4936123;29;20178;-94
2022/01/23 07:59:35;;;;;;;12.23;9.37;;;5.10;99.90;;;;;;4936137;29;20184;-93
2022/01/23 08:02:01;;;;;;;14.43;9.87;;;5.10;99.90;;;;;;4936196;29;20264;-93
2022/01/23 08:04:27;;;;;;;15.57;9.43;;;5.10;99.90;;;;;;4952996;29;20243;-93
2022/01/23 08:07:21;;;;;;;11.97;8.77;;;5.20;99.90;;;;;;4955142;28;20181;-93
2022/01/23 08:09:47;;;;;;;14.73;10.07;;;5.10;99.90;;;;;;4954998;28;20201;-93
2022/01/23 08:12:13;;;;;;;13.07;9.90;;;5.10;99.90;;;;;;4956735;28;20626;-93
2022/01/23 08:14:39;;;;;;;13.10;9.27;;;5.10;99.90;;;;;;4955374;28;20181;-93
2022/01/23 08:17:05;;;;;;;12.20;9.40;;;5.10;99.90;;;;;;4955213;28;20252;-92
2022/01/23 08:19:30;;;;;;;13.67;9.50;;;5.20;99.90;;;;;;4954966;28;20209;-93
2022/01/23 08:21:56;;;;;;;14.00;9.77;;;5.10;99.90;;;;;;4955184;28;20612;-93
2022/01/23 08:24:23;;;;;;;13.87;9.23;;;5.30;99.90;;;;;;4955066;28;20191;-93
2022/01/23 08:26:48;;;;;;;12.63;9.50;;;5.20;99.90;;;;;;4954975;28;20177;-93
2022/01/23 08:29:14;;;;;;;14.77;9.60;;;5.20;99.90;;;;;;4948894;28;20604;-92
2022/01/23 08:31:40;;;;;;;16.47;9.43;;;5.30;99.90;;;;;;4942892;29;20185;-93
2022/01/23 08:34:06;;;;;;;11.30;8.77;;;5.20;99.90;;;;;;4943432;29;20308;-92
2022/01/23 08:36:35;;;;;;;12.20;8.67;;;5.40;99.90;;;;;;4943277;29;20189;-92
2022/01/23 08:39:01;;;;;;;12.40;9.10;;;5.40;99.90;;;;;;4945281;29;20197;-92
2022/01/23 08:44:11;;;;;;;11.80;8.83;;;5.40;99.90;;;;;;4956330;29;20312;-93
2022/01/23 08:46:37;;;;;;;14.37;9.30;;;5.40;99.90;;;;;;4954824;28;20265;-93
2022/01/23 08:49:03;;;;;;;11.63;9.40;;;5.40;99.90;;;;;;4950289;28;20217;-93
2022/01/23 08:51:28;;;;;;;12.60;9.27;;;5.40;99.90;;;;;;4946687;29;20187;-93
2022/01/23 08:53:54;;;;;;;14.00;9.50;;;5.40;99.90;;;;;;4949885;29;20185;-93
2022/01/23 08:56:20;;;;;;;13.70;8.87;;;5.40;99.90;;;;;;4948452;29;20270;-93
2022/01/23 08:58:46;;;;;;;12.33;9.53;;;5.40;99.90;;;;;;4953329;28;20616;-93
2022/01/23 09:01:11;;;;;;;10.97;9.17;;;5.50;99.90;;;;;;4958992;28;20256;-94
2022/01/23 09:03:37;;;;;;;12.57;9.20;;;5.40;99.90;;;;;;4942654;28;20674;-92
2022/01/23 09:06:05;;;;;;;11.37;8.73;;;5.50;99.90;;;;;;4958265;28;20193;-92
2022/01/23 09:08:34;;;;;;;12.50;9.10;;;5.40;99.90;;;;;;4948975;28;20596;-93
2022/01/23 09:11:07;;;;;;;11.80;9.50;;;5.40;99.90;;;;;;4955276;28;20237;-93
2022/01/23 09:16:05;;;;;;;12.23;8.53;;;5.50;99.90;;;;;;4940591;29;20174;-93
2022/01/23 09:18:31;;;;;;;15.37;8.53;;;5.50;99.90;;;;;;4953315;28;20514;-93
2022/01/23 09:20:57;;;;;;;13.50;8.53;;;5.50;99.90;;;;;;4945633;29;20222;-93
2022/01/23 09:23:22;;;;;;;10.73;8.30;;;5.60;99.90;;;;;;4947708;28;20188;-93
2022/01/23 09:25:49;;;;;;;12.33;9.00;;;5.60;99.90;;;;;;4945713;29;20259;-92
2022/01/23 09:28:15;;;;;;;13.40;9.43;;;5.60;99.90;;;;;;4951462;29;20209;-92
2022/01/23 09:30:44;;;;;;;11.10;8.60;;;5.60;99.90;;;;;;4957886;28;20346;-93
2022/01/23 09:33:10;;;;;;;13.83;9.17;;;5.60;99.90;;;;;;4957769;28;20200;-92
2022/01/23 09:35:36;;;;;;;11.93;9.67;;;5.60;99.90;;;;;;4957628;28;20244;-92
2022/01/23 09:38:02;;;;;;;11.03;9.10;;;5.60;99.90;;;;;;4957087;28;20199;-93
2022/01/23 09:40:28;;;;;;;11.70;9.17;;;5.60;99.90;;;;;;4958017;28;20620;-94
2022/01/23 09:43:12;;;;;;;11.93;9.13;;;5.70;99.90;;;;;;4958071;28;20638;-92
2022/01/23 09:45:38;;;;;;;14.00;9.67;;;5.80;99.90;;;;;;4958073;28;20169;-92
2022/01/23 09:48:05;;;;;;;13.37;9.60;;;5.70;99.90;;;;;;4957127;28;20216;-91
2022/01/23 09:50:32;;;;;;;9.90;8.20;;;5.70;99.90;;;;;;4954501;28;20189;-92
2022/01/23 09:52:58;;;;;;;13.17;8.60;;;5.70;99.90;;;;;;4957830;28;20180;-92
2022/01/23 09:55:26;;;;;;;13.33;9.10;;;5.80;99.90;;;;;;4957692;28;20189;-93
2022/01/23 09:57:53;;;;;;;12.53;9.63;;;5.80;99.90;;;;;;4948727;28;20178;-92
2022/01/23 10:00:24;;;;;;;12.73;8.70;;;5.80;99.90;;;;;;4938413;29;20511;-92
2022/01/23 10:02:50;;;;;;;12.20;8.83;;;5.90;99.90;;;;;;4942201;28;20193;-93
2022/01/23 10:05:17;;;;;;;10.97;8.27;;;6.00;99.90;;;;;;4942217;28;20197;-92
2022/01/23 10:07:44;;;;;;;10.60;8.63;;;6.00;99.90;;;;;;4938331;29;20212;-92
2022/01/23 10:10:18;;;;;;;13.53;8.70;;;6.00;99.90;;;;;;4938800;29;20182;-92
2022/01/23 10:13:02;;;;;;;10.10;7.30;;;6.00;99.90;;;;;;4938329;29;20570;-92
2022/01/23 10:15:33;;;;;;;9.67;7.70;;;6.00;99.90;;;;;;4953948;29;20627;-93
2022/01/23 10:18:00;;;;;;;11.00;8.57;;;6.10;99.90;;;;;;4948221;28;20189;-93
2022/01/23 10:20:26;;;;;;;10.90;7.80;;;6.10;99.90;;;;;;4957462;28;20217;-92
2022/01/23 10:22:54;;;;;;;9.63;7.60;;;6.10;99.90;;;;;;4956568;28;20213;-93
2022/01/23 10:25:28;;;;;;;12.90;8.60;;;6.10;99.90;;;;;;4945369;29;20237;-93
2022/01/23 10:28:18;;;;;;;11.53;8.43;;;6.00;99.90;;;;;;4944100;29;20173;-93
2022/01/23 10:30:47;;;;;;;10.70;8.40;;;6.10;99.90;;;;;;4945165;29;20181;-92
2022/01/23 10:33:19;;;;;;;10.67;8.33;;;6.10;99.90;;;;;;4945189;29;20181;-91
2022/01/23 10:36:00;;;;;;;11.97;8.63;;;6.10;99.90;;;;;;4945721;29;20316;-92
2022/01/23 10:38:47;;;;;;;10.80;7.77;;;6.10;99.90;;;;;;4946119;29;20178;-91
2022/01/23 10:47:28;;;;;;;10.70;8.27;;;6.30;99.90;;;;;;4956086;29;20541;-92
2022/01/23 10:49:56;;;;;;;13.00;8.50;;;6.20;99.90;;;;;;4956978;28;20644;-93
2022/01/23 10:52:26;;;;;;;12.50;7.87;;;6.20;99.90;;;;;;4954546;29;20210;-94
2022/01/23 10:54:52;;;;;;;11.13;8.73;;;6.20;99.90;;;;;;4945360;28;20228;-93
2022/01/23 10:57:17;;;;;;;10.73;8.60;;;6.20;99.90;;;;;;4947897;28;20244;-93
2022/01/23 10:59:49;;;;;;;11.37;8.90;;;6.10;99.90;;;;;;4956683;28;20195;-93
2022/01/23 11:02:21;;;;;;;11.63;9.20;;;6.10;99.90;;;;;;4956307;28;20224;-93
2022/01/23 11:05:04;;;;;;;10.07;7.73;;;6.10;99.90;;;;;;4956314;28;20173;-93
2022/01/23 11:07:31;;;;;;;9.97;7.70;;;6.20;99.90;;;;;;4956337;28;20185;-91
2022/01/23 11:10:19;;;;;;;9.57;8.03;;;6.20;99.90;;;;;;4956303;28;20209;-92
2022/01/23 11:18:14;;;;;;;9.50;7.93;;;6.20;99.90;;;;;;4956689;28;20204;-94
2022/01/23 11:20:50;;;;;;;10.90;7.67;;;6.20;99.90;;;;;;4955843;28;20202;-94
2022/01/23 11:23:27;;;;;;;11.27;8.13;;;6.20;99.90;;;;;;4957212;28;20252;-91
2022/01/23 11:25:56;;;;;;;10.57;8.07;;;6.20;99.90;;;;;;4956046;28;20235;-92
2022/01/23 11:28:37;;;;;;;10.13;8.47;;;6.30;99.90;;;;;;4955627;28;20295;-94
2022/01/23 11:31:08;;;;;;;10.37;8.40;;;6.30;99.90;;;;;;4955573;28;20181;-92
2022/01/23 11:33:33;;;;;;;8.27;7.00;;;6.30;99.90;;;;;;4955403;28;20189;-92
2022/01/23 11:36:00;;;;;;;10.07;7.60;;;6.30;99.90;;;;;;4955667;28;20185;-93
2022/01/23 11:38:27;;;;;;;11.33;8.37;;;6.30;99.90;;;;;;4955380;28;20527;-92
2022/01/23 11:54:36;;;;;;;10.93;8.40;;;6.40;99.90;;;;;;4937868;29;20180;-95
2022/01/23 11:57:03;;;;;;;11.83;7.77;;;6.50;99.90;;;;;;4936289;29;20292;-92
2022/01/23 11:59:41;;;;;;;8.43;7.10;;;6.50;99.90;;;;;;4952277;28;20186;-92
2022/01/23 12:02:27;;;;;;;10.90;7.13;;;6.50;99.90;;;;;;4952078;28;20185;-93
2022/01/23 12:05:12;;;;;;;10.77;7.07;;;6.60;99.90;;;;;;4952164;28;20186;-95
2022/01/23 12:07:40;;;;;;;8.03;6.50;;;6.60;99.90;;;;;;4936223;29;20189;-94
2022/01/23 12:10:25;;;;;;;8.20;6.43;;;6.70;99.90;;;;;;4952017;28;20297;-94
2022/01/23 12:18:48;;;;;;;7.13;6.13;;;6.70;99.90;;;;;;4937190;29;20172;-92
2022/01/23 12:21:28;;;;;;;8.27;6.20;;;6.70;99.90;;;;;;4952076;28;20215;-92
2022/01/23 12:24:05;;;;;;;7.60;5.80;;;6.70;99.90;;;;;;4951791;28;20177;-92
2022/01/23 12:26:31;;;;;;;7.13;5.97;;;6.70;99.90;;;;;;4936507;29;20181;-92
2022/01/23 12:29:13;;;;;;;8.53;6.83;;;6.80;99.90;;;;;;4954503;28;20217;-93
2022/01/23 12:31:40;;;;;;;8.93;6.90;;;6.70;99.90;;;;;;4955235;28;20173;-93
2022/01/23 12:34:06;;;;;;;9.27;6.50;;;6.80;99.90;;;;;;4954842;28;20328;-93
2022/01/23 12:36:37;;;;;;;9.33;6.90;;;6.80;99.90;;;;;;4954618;28;20272;-95
2022/01/23 12:39:09;;;;;;;9.20;6.93;;;6.80;99.90;;;;;;4955189;28;20216;-95
2022/01/23 12:41:37;;;;;;;10.03;7.00;;;6.70;99.90;;;;;;4955035;28;20177;-93
2022/01/23 12:44:22;;;;;;;10.63;6.67;;;6.70;99.90;;;;;;4956412;28;20566;-93
2022/01/23 12:46:51;;;;;;;8.73;6.50;;;6.70;99.90;;;;;;4954858;28;20262;-94
2022/01/23 12:49:38;;;;;;;8.10;6.80;;;6.70;99.90;;;;;;4954754;28;20656;-94
2022/01/23 12:52:09;;;;;;;8.83;7.10;;;6.80;99.90;;;;;;4955114;28;20189;-95
2022/01/23 12:54:51;;;;;;;10.80;7.20;;;6.70;99.90;;;;;;4955418;29;20201;-94
2022/01/23 12:57:23;;;;;;;7.90;6.77;;;6.70;99.90;;;;;;4941470;28;20200;-94
2022/01/23 12:59:58;;;;;;;9.10;6.97;;;6.70;99.90;;;;;;4945446;29;20285;-94
2022/01/23 13:02:30;;;;;;;8.40;7.03;;;6.80;99.90;;;;;;4942757;29;20178;-94
2022/01/23 13:04:56;;;;;;;9.33;7.27;;;6.70;99.90;;;;;;4942993;28;20170;-94
2022/01/23 13:07:41;;;;;;;11.27;7.47;;;6.80;99.90;;;;;;4942063;28;20174;-94
2022/01/23 13:32:13;;;;;;;9.43;7.43;;;6.90;99.90;;;;;;4956200;29;20200;-93
2022/01/23 13:34:51;;;;;;;8.40;6.23;;;6.90;99.90;;;;;;4954374;28;20324;-93
2022/01/23 13:37:23;;;;;;;9.30;7.43;;;6.80;99.90;;;;;;4940831;28;20543;-93
2022/01/23 13:40:03;;;;;;;10.97;7.37;;;6.80;99.90;;;;;;4938974;29;20573;-94
2022/01/23 14:04:34;;;;;;;9.47;7.27;;;6.90;99.90;;;;;;4953010;28;20177;-95
2022/01/23 14:07:00;;;;;;;8.83;6.53;;;6.90;99.90;;;;;;4955384;29;20212;-94
2022/01/23 14:09:26;;;;;;;9.27;6.40;;;6.90;99.90;;;;;;4955166;28;20248;-94
2022/01/23 14:11:53;;;;;;;9.03;6.53;;;6.90;99.90;;;;;;4942066;28;20244;-94
2022/01/23 14:14:23;;;;;;;10.87;6.57;;;6.90;99.90;;;;;;4941137;29;20193;-93
2022/01/23 14:16:51;;;;;;;9.30;6.60;;;6.90;99.90;;;;;;4941559;28;20280;-93
2022/01/23 14:19:28;;;;;;;10.90;6.90;;;6.90;99.90;;;;;;4957787;28;20188;-94
2022/01/23 14:21:59;;;;;;;7.93;6.83;;;6.90;99.90;;;;;;4945569;28;20767;-94
2022/01/23 14:24:28;;;;;;;10.27;6.80;;;6.80;99.90;;;;;;4939034;29;20180;-94
2022/01/23 14:27:10;;;;;;;9.27;6.97;;;6.90;99.90;;;;;;4939509;29;20180;-94
2022/01/23 14:29:53;;;;;;;8.07;6.87;;;6.80;99.90;;;;;;4949901;29;20205;-94
2022/01/23 14:32:41;;;;;;;8.13;6.80;;;6.90;99.90;;;;;;4942053;28;20185;-94
2022/01/23 14:35:14;;;;;;;10.43;6.90;;;6.90;99.90;;;;;;4949288;29;20312;-95
2022/01/23 14:37:41;;;;;;;9.17;7.80;;;6.90;99.90;;;;;;4958074;28;20173;-93
2022/01/23 14:40:14;;;;;;;8.70;7.70;;;6.90;99.90;;;;;;4944848;28;20182;-92
2022/01/23 14:42:40;;;;;;;10.83;8.17;;;6.90;99.90;;;;;;4938818;29;20214;-93
2022/01/23 14:45:09;;;;;;;9.93;7.90;;;6.90;99.90;;;;;;4956146;28;20272;-94
2022/01/23 14:47:39;;;;;;;7.97;7.17;;;6.90;99.90;;;;;;4946548;28;20276;-93
2022/01/23 14:50:12;;;;;;;8.73;7.23;;;6.90;99.90;;;;;;4953395;28;20312;-94
2022/01/23 14:52:40;;;;;;;12.13;8.13;;;6.80;99.90;;;;;;4957499;28;20182;-93
2022/01/23 14:55:17;;;;;;;9.87;7.77;;;6.80;99.90;;;;;;4940470;28;20192;-93
2022/01/23 14:57:45;;;;;;;10.80;8.33;;;6.80;99.90;;;;;;4938077;29;20265;-94
2022/01/23 15:00:12;;;;;;;10.30;8.10;;;6.80;99.90;;;;;;4955379;29;20646;-94
2022/01/23 15:02:41;;;;;;;8.50;7.27;;;6.80;99.90;;;;;;4957278;28;20173;-95
2022/01/23 15:05:39;;;;;;;10.43;7.87;;;6.90;99.90;;;;;;4940061;28;20222;-94
2022/01/23 15:08:08;;;;;;;9.83;7.20;;;6.80;99.90;;;;;;4946270;29;20185;-95
2022/01/23 15:10:38;;;;;;;10.70;7.27;;;6.70;99.90;;;;;;4937774;29;20194;-94
2022/01/23 15:13:08;;;;;;;10.37;7.80;;;6.80;99.90;;;;;;4957058;29;20256;-96
2022/01/23 15:15:35;;;;;;;11.07;8.73;;;6.80;99.90;;;;;;4949673;28;20194;-95
2022/01/23 15:18:01;;;;;;;11.60;8.37;;;6.70;99.90;;;;;;4949091;29;20201;-95
2022/01/23 15:20:27;;;;;;;12.77;7.07;;;6.70;99.90;;;;;;4954925;29;20189;-95
2022/01/23 15:22:53;;;;;;;8.47;7.00;;;6.70;99.90;;;;;;4956881;28;20635;-96
2022/01/23 15:25:24;;;;;;;9.60;8.10;;;6.70;99.90;;;;;;4940626;28;20237;-96
2022/01/23 15:27:50;;;;;;;12.27;8.00;;;6.80;99.90;;;;;;4947178;29;20165;-95
2022/01/23 15:30:16;;;;;;;11.00;7.83;;;6.70;99.90;;;;;;4955443;28;20224;-96
2022/01/23 15:32:44;;;;;;;10.13;8.33;;;6.80;99.90;;;;;;4956702;28;20182;-95
2022/01/23 15:35:11;;;;;;;13.53;8.73;;;6.80;99.90;;;;;;4954557;28;20236;-96
2022/01/23 15:37:37;;;;;;;12.00;7.93;;;6.70;99.90;;;;;;4948023;28;20200;-96
2022/01/23 15:40:05;;;;;;;10.00;7.90;;;6.70;99.90;;;;;;4947466;29;20282;-94
2022/01/23 15:42:31;;;;;;;12.23;7.97;;;6.70;99.90;;;;;;4955421;28;20208;-96
2022/01/23 15:44:56;;;;;;;10.53;7.97;;;6.70;99.90;;;;;;4940412;28;20620;-94
2022/01/23 15:47:22;;;;;;;10.70;7.40;;;6.70;99.90;;;;;;4955489;28;20845;-95
2022/01/23 15:49:48;;;;;;;10.60;8.23;;;6.70;99.90;;;;;;4939870;28;20213;-93
2022/01/23 15:52:14;;;;;;;11.10;7.40;;;6.70;99.90;;;;;;4946026;29;20212;-94
2022/01/23 15:54:41;;;;;;;13.90;8.60;;;6.70;99.90;;;;;;4940885;29;20635;-94
2022/01/23 15:57:07;;;;;;;10.40;8.17;;;6.60;99.90;;;;;;4936251;29;20185;-94
2022/01/23 15:59:35;;;;;;;10.63;7.90;;;6.70;99.90;;;;;;4955611;29;20193;-94
2022/01/23 16:02:02;;;;;;;9.63;7.83;;;6.70;99.90;;;;;;4954795;28;20177;-95
2022/01/23 16:04:32;;;;;;;13.80;8.03;;;6.60;99.90;;;;;;4954877;28;20526;-93
2022/01/23 16:06:58;;;;;;;15.27;8.40;;;6.70;99.90;;;;;;4940808;28;20174;-93
2022/01/23 16:09:24;;;;;;;10.60;8.23;;;6.70;99.90;;;;;;4936111;29;20690;-94
2022/01/23 16:11:50;;;;;;;10.60;8.00;;;6.70;99.90;;;;;;4937622;29;20568;-93
2022/01/23 16:14:19;;;;;;;13.13;8.97;;;6.70;99.90;;;;;;4939377;29;20190;-94
2022/01/23 16:16:46;;;;;;;13.00;9.47;;;6.60;99.90;;;;;;4939472;29;20216;-94
2022/01/23 16:19:12;;;;;;;12.03;9.03;;;6.60;99.90;;;;;;4945738;28;20193;-93
2022/01/23 16:21:38;;;;;;;10.57;8.60;;;6.60;99.90;;;;;;4935540;29;20174;-93
2022/01/23 16:24:04;;;;;;;10.30;8.77;;;6.60;99.90;;;;;;4940007;29;20264;-93
2022/01/23 16:26:30;;;;;;;13.57;11.00;;;6.60;99.90;;;;;;4955515;28;20184;-93
2022/01/23 16:28:56;;;;;;;21.97;16.37;;;6.60;99.90;;;;;;4944195;28;20209;-93
2022/01/23 16:31:21;;;;;;;16.67;12.27;;;6.60;99.90;;;;;;4937317;29;20193;-94
2022/01/23 16:33:47;;;;;;;19.90;12.47;;;6.60;99.90;;;;;;4942558;29;20532;-93
2022/01/23 16:36:13;;;;;;;16.40;10.80;;;6.60;99.90;;;;;;4953695;29;20192;-93
2022/01/23 16:38:40;;;;;;;14.10;9.73;;;6.60;99.90;;;;;;4955075;28;20188;-93
2022/01/23 16:41:06;;;;;;;15.73;11.27;;;6.60;99.90;;;;;;4955200;28;20192;-93
2022/01/23 16:43:33;;;;;;;22.43;18.03;;;6.50;99.90;;;;;;4955123;28;20263;-94
2022/01/23 16:46:00;;;;;;;27.77;21.10;;;6.50;99.90;;;;;;4941863;28;20245;-92
2022/01/23 16:48:27;;;;;;;23.10;17.10;;;6.50;99.90;;;;;;4954230;29;20221;-92
2022/01/23 16:50:54;;;;;;;20.00;12.77;;;6.50;99.90;;;;;;4954592;28;20178;-93